sensor_id;sensor_type;location;lat;lon;timestamp;pressure;altitude;pressure_sealevel;temperature;humidity
10718;BME280;13513;42.700;23.124;2023-06-22T00:01:45;93391.80;;;19.45;87.09
10718;BME280;13513;42.700;23.124;2023-06-22T00:04:16;93385.41;;;19.41;88.36
10718;BME280;13513;42.700;23.124;2023-06-22T00:06:47;93392.20;;;19.33;89.11
10718;BME280;13513;42.700;23.124;2023-06-22T00:09:18;93385.42;;;19.38;87.11
10718;BME280;13513;42.700;23.124;2023-06-22T00:11:49;93384.09;;;19.38;86.91
10718;BME280;13513;42.700;23.124;2023-06-22T00:14:18;93380.06;;;19.38;86.28
10718;BME280;13513;42.700;23.124;2023-06-22T00:16:49;93375.23;;;19.40;86.28
10718;BME280;13513;42.700;23.124;2023-06-22T00:19:19;93369.06;;;19.40;87.18
10718;BME280;13513;42.700;23.124;2023-06-22T00:21:51;93359.51;;;19.34;86.44
10718;BME280;13513;42.700;23.124;2023-06-22T00:24:23;93360.89;;;19.29;88.08
10718;BME280;13513;42.700;23.124;2023-06-22T00:26:54;93356.38;;;19.27;89.23
10718;BME280;13513;42.700;23.124;2023-06-22T00:29:25;93361.52;;;19.00;89.90
10718;BME280;13513;42.700;23.124;2023-06-22T00:31:56;93361.48;;;19.02;91.97
10718;BME280;13513;42.700;23.124;2023-06-22T00:34:27;93362.05;;;18.99;91.26
10718;BME280;13513;42.700;23.124;2023-06-22T00:36:58;93363.31;;;19.07;89.08
10718;BME280;13513;42.700;23.124;2023-06-22T00:39:29;93361.98;;;19.07;88.53
10718;BME280;13513;42.700;23.124;2023-06-22T00:42:00;93358.77;;;19.05;88.85
10718;BME280;13513;42.700;23.124;2023-06-22T00:44:31;93362.51;;;19.06;88.49
10718;BME280;13513;42.700;23.124;2023-06-22T00:47:01;93358.60;;;18.96;89.24
10718;BME280;13513;42.700;23.124;2023-06-22T00:49:32;93357.44;;;18.84;90.52
10718;BME280;13513;42.700;23.124;2023-06-22T00:52:03;93352.58;;;18.86;90.59
10718;BME280;13513;42.700;23.124;2023-06-22T00:54:37;93353.48;;;18.76;91.72
10718;BME280;13513;42.700;23.124;2023-06-22T00:57:08;93360.74;;;18.76;92.90
10718;BME280;13513;42.700;23.124;2023-06-22T00:59:40;93367.12;;;18.80;92.51
10718;BME280;13513;42.700;23.124;2023-06-22T01:02:11;93373.01;;;18.79;92.44
10718;BME280;13513;42.700;23.124;2023-06-22T01:04:41;93370.51;;;18.88;93.96
10718;BME280;13513;42.700;23.124;2023-06-22T01:10:13;93364.63;;;18.86;92.02
10718;BME280;13513;42.700;23.124;2023-06-22T01:12:44;93368.15;;;18.84;91.58
10718;BME280;13513;42.700;23.124;2023-06-22T01:15:16;93368.95;;;18.82;91.08
10718;BME280;13513;42.700;23.124;2023-06-22T01:17:47;93371.17;;;18.77;92.20
10718;BME280;13513;42.700;23.124;2023-06-22T01:20:22;93366.62;;;18.75;90.94
10718;BME280;13513;42.700;23.124;2023-06-22T01:25:59;93367.16;;;18.75;90.39
10718;BME280;13513;42.700;23.124;2023-06-22T01:28:44;93371.17;;;18.75;89.19
10718;BME280;13513;42.700;23.124;2023-06-22T01:31:00;93382.79;;;18.65;90.49
10718;BME280;13513;42.700;23.124;2023-06-22T01:33:35;93378.53;;;18.64;93.64
10718;BME280;13513;42.700;23.124;2023-06-22T01:36:07;93379.86;;;18.64;93.89
10718;BME280;13513;42.700;23.124;2023-06-22T01:38:39;93379.27;;;18.70;94.83
10718;BME280;13513;42.700;23.124;2023-06-22T01:41:11;93385.94;;;18.72;93.96
10718;BME280;13513;42.700;23.124;2023-06-22T01:43:42;93386.18;;;18.76;95.58
10718;BME280;13513;42.700;23.124;2023-06-22T01:46:13;93375.19;;;18.77;92.31
10718;BME280;13513;42.700;23.124;2023-06-22T01:48:44;93384.03;;;18.75;89.31
10718;BME280;13513;42.700;23.124;2023-06-22T01:51:15;93384.84;;;18.76;89.04
10718;BME280;13513;42.700;23.124;2023-06-22T01:53:46;93388.14;;;18.65;90.28
10718;BME280;13513;42.700;23.124;2023-06-22T01:56:18;93388.70;;;18.65;91.87
10718;BME280;13513;42.700;23.124;2023-06-22T01:59:18;93397.33;;;18.59;91.10
10718;BME280;13513;42.700;23.124;2023-06-22T02:01:30;93403.05;;;18.50;91.57
10718;BME280;13513;42.700;23.124;2023-06-22T02:04:03;93403.07;;;18.45;92.39
10718;BME280;13513;42.700;23.124;2023-06-22T02:06:37;93405.27;;;18.38;92.52
10718;BME280;13513;42.700;23.124;2023-06-22T02:09:17;93407.45;;;18.34;93.77
10718;BME280;13513;42.700;23.124;2023-06-22T02:11:44;93405.48;;;18.13;96.68
10718;BME280;13513;42.700;23.124;2023-06-22T02:14:18;93402.28;;;18.14;97.32
10718;BME280;13513;42.700;23.124;2023-06-22T02:16:50;93397.95;;;18.15;96.90
10718;BME280;13513;42.700;23.124;2023-06-22T02:19:26;93399.95;;;18.02;99.89
10718;BME280;13513;42.700;23.124;2023-06-22T02:21:57;93396.42;;;18.09;100.00
10718;BME280;13513;42.700;23.124;2023-06-22T02:24:28;93403.61;;;18.14;100.00
10718;BME280;13513;42.700;23.124;2023-06-22T02:27:00;93403.89;;;18.12;100.00
10718;BME280;13513;42.700;23.124;2023-06-22T02:29:31;93393.94;;;18.15;100.00
10718;BME280;13513;42.700;23.124;2023-06-22T02:32:01;93394.70;;;18.21;100.00
10718;BME280;13513;42.700;23.124;2023-06-22T02:34:32;93396.59;;;18.20;100.00
10718;BME280;13513;42.700;23.124;2023-06-22T02:37:04;93403.48;;;18.26;100.00
10718;BME280;13513;42.700;23.124;2023-06-22T02:39:35;93396.27;;;18.27;100.00
10718;BME280;13513;42.700;23.124;2023-06-22T02:42:05;93400.86;;;18.21;100.00
10718;BME280;13513;42.700;23.124;2023-06-22T02:44:36;93395.00;;;18.17;100.00
10718;BME280;13513;42.700;23.124;2023-06-22T02:47:07;93394.50;;;18.15;100.00
10718;BME280;13513;42.700;23.124;2023-06-22T02:49:38;93391.52;;;18.19;100.00
10718;BME280;13513;42.700;23.124;2023-06-22T02:52:11;93387.48;;;18.21;100.00
10718;BME280;13513;42.700;23.124;2023-06-22T02:54:40;93388.29;;;18.19;100.00
10718;BME280;13513;42.700;23.124;2023-06-22T02:57:11;93393.64;;;18.19;100.00
10718;BME280;13513;42.700;23.124;2023-06-22T02:59:41;93393.37;;;18.23;100.00
10718;BME280;13513;42.700;23.124;2023-06-22T03:02:11;93390.64;;;18.28;100.00
10718;BME280;13513;42.700;23.124;2023-06-22T03:04:43;93394.59;;;18.33;100.00
10718;BME280;13513;42.700;23.124;2023-06-22T03:07:13;93398.00;;;18.44;100.00
10718;BME280;13513;42.700;23.124;2023-06-22T03:09:43;93407.56;;;18.52;100.00
10718;BME280;13513;42.700;23.124;2023-06-22T03:12:14;93405.08;;;18.61;100.00
10718;BME280;13513;42.700;23.124;2023-06-22T03:14:45;93402.55;;;18.72;100.00
10718;BME280;13513;42.700;23.124;2023-06-22T03:17:16;93406.70;;;18.83;100.00
10718;BME280;13513;42.700;23.124;2023-06-22T03:19:47;93413.26;;;18.95;100.00
10718;BME280;13513;42.700;23.124;2023-06-22T03:22:18;93411.14;;;18.95;100.00
10718;BME280;13513;42.700;23.124;2023-06-22T03:24:48;93406.81;;;18.99;100.00
10718;BME280;13513;42.700;23.124;2023-06-22T03:27:19;93409.67;;;19.05;99.17
10718;BME280;13513;42.700;23.124;2023-06-22T03:29:50;93419.78;;;19.10;99.15
10718;BME280;13513;42.700;23.124;2023-06-22T03:32:20;93421.52;;;19.25;98.25
10718;BME280;13513;42.700;23.124;2023-06-22T03:34:51;93424.64;;;19.32;99.74
10718;BME280;13513;42.700;23.124;2023-06-22T03:37:22;93425.63;;;19.38;99.19
10718;BME280;13513;42.700;23.124;2023-06-22T03:39:52;93427.17;;;19.44;99.71
10718;BME280;13513;42.700;23.124;2023-06-22T03:42:23;93433.31;;;19.66;99.02
10718;BME280;13513;42.700;23.124;2023-06-22T03:44:54;93424.70;;;19.88;96.02
10718;BME280;13513;42.700;23.124;2023-06-22T03:47:23;93433.95;;;19.98;95.17
10718;BME280;13513;42.700;23.124;2023-06-22T03:49:54;93434.59;;;20.08;94.34
10718;BME280;13513;42.700;23.124;2023-06-22T03:52:24;93439.95;;;20.11;94.19
10718;BME280;13513;42.700;23.124;2023-06-22T03:54:55;93434.53;;;20.13;96.55
10718;BME280;13513;42.700;23.124;2023-06-22T03:57:25;93429.98;;;19.93;95.86
10718;BME280;13513;42.700;23.124;2023-06-22T03:59:56;93432.98;;;19.91;95.57
10718;BME280;13513;42.700;23.124;2023-06-22T04:02:27;93426.66;;;19.82;95.35
10718;BME280;13513;42.700;23.124;2023-06-22T04:04:58;93424.73;;;19.85;95.63
10718;BME280;13513;42.700;23.124;2023-06-22T04:07:28;93418.84;;;19.86;95.71
10718;BME280;13513;42.700;23.124;2023-06-22T04:09:59;93418.14;;;19.96;95.52
10718;BME280;13513;42.700;23.124;2023-06-22T04:12:29;93421.59;;;20.18;97.48
10718;BME280;13513;42.700;23.124;2023-06-22T04:15:00;93415.60;;;20.39;96.20
10718;BME280;13513;42.700;23.124;2023-06-22T04:17:30;93426.19;;;20.49;93.49
10718;BME280;13513;42.700;23.124;2023-06-22T04:20:01;93430.05;;;20.73;94.03
10718;BME280;13513;42.700;23.124;2023-06-22T04:22:31;93422.98;;;20.95;93.82
10718;BME280;13513;42.700;23.124;2023-06-22T04:25:05;93419.97;;;21.10;93.71
10718;BME280;13513;42.700;23.124;2023-06-22T04:27:35;93413.95;;;21.29;90.31
10718;BME280;13513;42.700;23.124;2023-06-22T04:30:08;93417.13;;;21.58;87.38
10718;BME280;13513;42.700;23.124;2023-06-22T04:32:38;93418.16;;;21.87;85.19
10718;BME280;13513;42.700;23.124;2023-06-22T04:35:08;93405.97;;;22.25;84.08
10718;BME280;13513;42.700;23.124;2023-06-22T04:37:39;93415.44;;;22.88;77.77
10718;BME280;13513;42.700;23.124;2023-06-22T04:40:10;93412.48;;;23.29;73.98
10718;BME280;13513;42.700;23.124;2023-06-22T04:42:44;93426.47;;;23.59;75.49
10718;BME280;13513;42.700;23.124;2023-06-22T04:45:15;93421.04;;;23.87;73.92
10718;BME280;13513;42.700;23.124;2023-06-22T04:47:45;93426.91;;;24.17;74.22
10718;BME280;13513;42.700;23.124;2023-06-22T04:50:16;93428.39;;;24.38;75.85
10718;BME280;13513;42.700;23.124;2023-06-22T04:52:46;93425.70;;;24.72;75.88
10718;BME280;13513;42.700;23.124;2023-06-22T04:55:16;93425.90;;;24.98;74.03
10718;BME280;13513;42.700;23.124;2023-06-22T04:57:47;93424.16;;;25.48;71.40
10718;BME280;13513;42.700;23.124;2023-06-22T05:00:19;93424.42;;;26.54;65.28
10718;BME280;13513;42.700;23.124;2023-06-22T05:02:50;93429.28;;;27.59;58.39
10718;BME280;13513;42.700;23.124;2023-06-22T05:05:21;93423.08;;;28.64;53.56
10718;BME280;13513;42.700;23.124;2023-06-22T05:07:53;93423.76;;;29.43;50.49
10718;BME280;13513;42.700;23.124;2023-06-22T05:10:24;93429.11;;;30.02;48.90
10718;BME280;13513;42.700;23.124;2023-06-22T05:12:58;93427.91;;;30.69;47.24
10718;BME280;13513;42.700;23.124;2023-06-22T05:15:32;93424.13;;;32.07;44.99
10718;BME280;13513;42.700;23.124;2023-06-22T05:18:03;93424.13;;;32.07;44.99
10718;BME280;13513;42.700;23.124;2023-06-22T05:20:34;93428.19;;;32.56;42.59
10718;BME280;13513;42.700;23.124;2023-06-22T05:23:05;93423.90;;;33.01;41.17
10718;BME280;13513;42.700;23.124;2023-06-22T05:25:36;93426.67;;;33.54;40.47
10718;BME280;13513;42.700;23.124;2023-06-22T05:28:07;93431.02;;;33.95;39.79
10718;BME280;13513;42.700;23.124;2023-06-22T05:30:37;93433.73;;;34.39;39.40
10718;BME280;13513;42.700;23.124;2023-06-22T05:33:07;93435.98;;;34.30;39.72
10718;BME280;13513;42.700;23.124;2023-06-22T05:35:38;93441.56;;;34.40;39.77
10718;BME280;13513;42.700;23.124;2023-06-22T05:38:09;93442.72;;;34.66;39.78
10718;BME280;13513;42.700;23.124;2023-06-22T05:40:40;93443.47;;;34.90;39.07
10718;BME280;13513;42.700;23.124;2023-06-22T05:43:11;93452.77;;;35.02;38.80
10718;BME280;13513;42.700;23.124;2023-06-22T05:45:41;93454.50;;;34.97;37.63
10718;BME280;13513;42.700;23.124;2023-06-22T05:48:11;93454.83;;;34.85;36.42
10718;BME280;13513;42.700;23.124;2023-06-22T05:50:42;93462.66;;;34.06;37.43
10718;BME280;13513;42.700;23.124;2023-06-22T05:53:13;93464.47;;;32.27;39.02
10718;BME280;13513;42.700;23.124;2023-06-22T05:55:42;93456.45;;;30.81;42.49
10718;BME280;13513;42.700;23.124;2023-06-22T05:58:13;93462.93;;;29.54;46.13
10718;BME280;13513;42.700;23.124;2023-06-22T06:00:46;93455.23;;;29.50;47.70
10718;BME280;13513;42.700;23.124;2023-06-22T06:03:17;93456.92;;;29.39;46.96
10718;BME280;13513;42.700;23.124;2023-06-22T06:05:48;93454.30;;;28.88;48.45
10718;BME280;13513;42.700;23.124;2023-06-22T06:08:18;93452.94;;;29.15;49.18
10718;BME280;13513;42.700;23.124;2023-06-22T06:10:49;93454.94;;;28.97;50.26
10718;BME280;13513;42.700;23.124;2023-06-22T06:13:19;93446.64;;;29.48;49.57
10718;BME280;13513;42.700;23.124;2023-06-22T06:15:50;93454.86;;;29.79;48.07
10718;BME280;13513;42.700;23.124;2023-06-22T06:18:21;93457.12;;;29.77;48.94
10718;BME280;13513;42.700;23.124;2023-06-22T06:20:51;93446.79;;;30.08;48.54
10718;BME280;13513;42.700;23.124;2023-06-22T06:23:22;93447.23;;;30.26;49.56
10718;BME280;13513;42.700;23.124;2023-06-22T06:25:53;93448.14;;;30.24;48.54
10718;BME280;13513;42.700;23.124;2023-06-22T06:28:26;93445.70;;;30.19;49.80
10718;BME280;13513;42.700;23.124;2023-06-22T06:30:59;93444.05;;;30.49;48.55
10718;BME280;13513;42.700;23.124;2023-06-22T06:33:29;93448.84;;;30.99;48.34
10718;BME280;13513;42.700;23.124;2023-06-22T06:36:00;93450.90;;;30.68;46.41
10718;BME280;13513;42.700;23.124;2023-06-22T06:38:31;93450.62;;;30.29;48.01
10718;BME280;13513;42.700;23.124;2023-06-22T06:41:02;93447.91;;;30.38;49.27
10718;BME280;13513;42.700;23.124;2023-06-22T06:43:33;93454.00;;;30.41;49.13
10718;BME280;13513;42.700;23.124;2023-06-22T06:46:04;93448.92;;;29.83;50.66
10718;BME280;13513;42.700;23.124;2023-06-22T06:48:34;93444.03;;;29.98;50.13
10718;BME280;13513;42.700;23.124;2023-06-22T06:51:05;93445.92;;;29.88;50.79
10718;BME280;13513;42.700;23.124;2023-06-22T06:53:37;93446.84;;;29.71;50.51
10718;BME280;13513;42.700;23.124;2023-06-22T06:56:10;93443.46;;;29.09;51.83
10718;BME280;13513;42.700;23.124;2023-06-22T06:58:41;93438.20;;;28.49;56.00
10718;BME280;13513;42.700;23.124;2023-06-22T07:01:12;93437.31;;;28.45;56.54
10718;BME280;13513;42.700;23.124;2023-06-22T07:03:42;93437.23;;;28.12;59.15
10718;BME280;13513;42.700;23.124;2023-06-22T07:06:14;93435.56;;;27.89;58.35
10718;BME280;13513;42.700;23.124;2023-06-22T07:08:45;93431.02;;;27.87;59.86
10718;BME280;13513;42.700;23.124;2023-06-22T07:11:16;93431.11;;;27.61;65.65
10718;BME280;13513;42.700;23.124;2023-06-22T07:13:47;93428.97;;;27.66;64.43
10718;BME280;13513;42.700;23.124;2023-06-22T07:16:21;93437.70;;;28.08;64.40
10718;BME280;13513;42.700;23.124;2023-06-22T07:18:52;93441.05;;;28.29;59.63
10718;BME280;13513;42.700;23.124;2023-06-22T07:21:23;93435.30;;;28.76;57.85
10718;BME280;13513;42.700;23.124;2023-06-22T07:23:54;93439.20;;;28.90;57.98
10718;BME280;13513;42.700;23.124;2023-06-22T07:26:25;93447.80;;;29.26;55.12
10718;BME280;13513;42.700;23.124;2023-06-22T07:28:56;93447.47;;;29.64;56.24
10718;BME280;13513;42.700;23.124;2023-06-22T07:31:26;93456.69;;;30.07;55.38
10718;BME280;13513;42.700;23.124;2023-06-22T07:33:57;93450.28;;;30.74;53.65
10718;BME280;13513;42.700;23.124;2023-06-22T07:36:28;93452.67;;;31.33;51.69
10718;BME280;13513;42.700;23.124;2023-06-22T07:38:59;93452.00;;;31.81;50.68
10718;BME280;13513;42.700;23.124;2023-06-22T07:41:30;93452.38;;;33.09;45.33
10718;BME280;13513;42.700;23.124;2023-06-22T07:44:01;93452.38;;;33.09;45.33
10718;BME280;13513;42.700;23.124;2023-06-22T07:46:34;93456.16;;;33.64;44.17
10718;BME280;13513;42.700;23.124;2023-06-22T07:49:05;93454.95;;;33.98;43.52
10718;BME280;13513;42.700;23.124;2023-06-22T07:51:36;93453.09;;;34.33;43.17
10718;BME280;13513;42.700;23.124;2023-06-22T07:54:08;93458.25;;;34.21;41.18
10718;BME280;13513;42.700;23.124;2023-06-22T07:56:39;93455.10;;;34.16;41.62
10718;BME280;13513;42.700;23.124;2023-06-22T07:59:10;93454.18;;;34.25;42.81
10718;BME280;13513;42.700;23.124;2023-06-22T08:01:41;93448.20;;;34.63;42.84
10718;BME280;13513;42.700;23.124;2023-06-22T08:04:12;93435.56;;;35.23;40.63
10718;BME280;13513;42.700;23.124;2023-06-22T08:06:42;93433.56;;;35.68;38.70
10718;BME280;13513;42.700;23.124;2023-06-22T08:09:13;93432.98;;;35.72;39.37
10718;BME280;13513;42.700;23.124;2023-06-22T08:11:43;93428.34;;;36.35;37.71
10718;BME280;13513;42.700;23.124;2023-06-22T08:14:14;93430.08;;;36.76;37.07
10718;BME280;13513;42.700;23.124;2023-06-22T08:16:45;93433.64;;;36.59;36.13
10718;BME280;13513;42.700;23.124;2023-06-22T08:19:15;93437.77;;;36.77;34.74
10718;BME280;13513;42.700;23.124;2023-06-22T08:21:46;93433.52;;;37.08;34.47
10718;BME280;13513;42.700;23.124;2023-06-22T08:24:17;93435.19;;;36.64;33.29
10718;BME280;13513;42.700;23.124;2023-06-22T08:26:49;93437.30;;;36.99;33.42
10718;BME280;13513;42.700;23.124;2023-06-22T08:29:19;93432.84;;;37.40;34.00
10718;BME280;13513;42.700;23.124;2023-06-22T08:31:50;93434.19;;;37.44;31.95
10718;BME280;13513;42.700;23.124;2023-06-22T08:34:21;93434.69;;;37.21;31.73
10718;BME280;13513;42.700;23.124;2023-06-22T08:36:52;93436.99;;;36.48;32.82
10718;BME280;13513;42.700;23.124;2023-06-22T08:39:23;93434.22;;;36.09;33.31
10718;BME280;13513;42.700;23.124;2023-06-22T08:41:54;93426.77;;;36.45;34.94
10718;BME280;13513;42.700;23.124;2023-06-22T08:44:25;93423.77;;;36.65;34.81
10718;BME280;13513;42.700;23.124;2023-06-22T08:46:57;93423.55;;;35.69;36.16
10718;BME280;13513;42.700;23.124;2023-06-22T08:49:28;93416.23;;;35.50;37.11
10718;BME280;13513;42.700;23.124;2023-06-22T08:51:58;93418.31;;;36.44;33.99
10718;BME280;13513;42.700;23.124;2023-06-22T08:54:30;93419.00;;;36.94;33.43
10718;BME280;13513;42.700;23.124;2023-06-22T08:57:01;93413.92;;;37.35;32.60
10718;BME280;13513;42.700;23.124;2023-06-22T08:59:32;93419.69;;;36.16;32.58
10718;BME280;13513;42.700;23.124;2023-06-22T09:02:03;93416.81;;;35.42;34.78
10718;BME280;13513;42.700;23.124;2023-06-22T09:04:33;93417.50;;;36.19;32.51
10718;BME280;13513;42.700;23.124;2023-06-22T09:07:05;93415.75;;;35.99;32.96
10718;BME280;13513;42.700;23.124;2023-06-22T09:09:35;93413.47;;;34.91;34.38
10718;BME280;13513;42.700;23.124;2023-06-22T09:12:07;93414.34;;;34.75;36.73
10718;BME280;13513;42.700;23.124;2023-06-22T09:14:38;93411.58;;;33.74;36.57
10718;BME280;13513;42.700;23.124;2023-06-22T09:17:09;93407.66;;;32.43;41.49
10718;BME280;13513;42.700;23.124;2023-06-22T09:19:40;93411.90;;;31.56;45.06
10718;BME280;13513;42.700;23.124;2023-06-22T09:22:11;93411.92;;;30.96;44.78
10718;BME280;13513;42.700;23.124;2023-06-22T09:24:41;93409.86;;;30.55;44.90
10718;BME280;13513;42.700;23.124;2023-06-22T09:27:12;93412.89;;;29.74;50.00
10718;BME280;13513;42.700;23.124;2023-06-22T09:29:43;93414.98;;;29.65;46.78
10718;BME280;13513;42.700;23.124;2023-06-22T09:32:16;93413.05;;;29.29;48.38
10718;BME280;13513;42.700;23.124;2023-06-22T09:34:47;93413.88;;;29.23;49.90
10718;BME280;13513;42.700;23.124;2023-06-22T09:37:16;93415.92;;;29.57;51.63
10718;BME280;13513;42.700;23.124;2023-06-22T09:39:47;93412.75;;;29.24;51.53
10718;BME280;13513;42.700;23.124;2023-06-22T09:42:17;93410.34;;;29.66;48.33
10718;BME280;13513;42.700;23.124;2023-06-22T09:44:48;93406.74;;;29.87;55.91
10718;BME280;13513;42.700;23.124;2023-06-22T09:47:19;93401.37;;;30.31;48.93
10718;BME280;13513;42.700;23.124;2023-06-22T09:49:50;93412.19;;;30.03;45.94
10718;BME280;13513;42.700;23.124;2023-06-22T09:52:21;93403.98;;;30.18;46.58
10718;BME280;13513;42.700;23.124;2023-06-22T09:54:52;93401.28;;;30.28;45.78
10718;BME280;13513;42.700;23.124;2023-06-22T09:57:23;93408.61;;;30.33;47.70
10718;BME280;13513;42.700;23.124;2023-06-22T09:59:54;93400.41;;;30.68;50.10
10718;BME280;13513;42.700;23.124;2023-06-22T10:02:25;93401.85;;;31.00;48.21
10718;BME280;13513;42.700;23.124;2023-06-22T10:04:56;93403.92;;;31.06;46.47
10718;BME280;13513;42.700;23.124;2023-06-22T10:07:27;93405.63;;;31.14;43.97
10718;BME280;13513;42.700;23.124;2023-06-22T10:09:58;93399.70;;;31.50;43.48
10718;BME280;13513;42.700;23.124;2023-06-22T10:15:03;93393.76;;;30.31;45.87
10718;BME280;13513;42.700;23.124;2023-06-22T10:17:33;93388.73;;;30.23;49.67
10718;BME280;13513;42.700;23.124;2023-06-22T10:20:05;93389.03;;;30.47;44.24
10718;BME280;13513;42.700;23.124;2023-06-22T10:22:42;93392.70;;;29.85;44.13
10718;BME280;13513;42.700;23.124;2023-06-22T10:25:14;93387.42;;;30.17;44.49
10718;BME280;13513;42.700;23.124;2023-06-22T10:27:45;93388.16;;;29.83;44.00
10718;BME280;13513;42.700;23.124;2023-06-22T10:30:14;93396.73;;;29.44;44.01
10718;BME280;13513;42.700;23.124;2023-06-22T10:32:45;93389.48;;;29.73;52.32
10718;BME280;13513;42.700;23.124;2023-06-22T10:35:17;93389.48;;;29.89;45.20
10718;BME280;13513;42.700;23.124;2023-06-22T10:37:47;93385.36;;;29.64;48.00
10718;BME280;13513;42.700;23.124;2023-06-22T10:40:18;93383.09;;;29.91;53.31
10718;BME280;13513;42.700;23.124;2023-06-22T10:42:59;93387.34;;;29.98;48.35
10718;BME280;13513;42.700;23.124;2023-06-22T10:45:29;93383.63;;;30.06;47.33
10718;BME280;13513;42.700;23.124;2023-06-22T10:47:59;93383.77;;;30.03;45.65
10718;BME280;13513;42.700;23.124;2023-06-22T10:50:29;93381.97;;;29.76;46.10
10718;BME280;13513;42.700;23.124;2023-06-22T10:52:58;93380.99;;;29.84;46.35
10718;BME280;13513;42.700;23.124;2023-06-22T10:55:29;93381.12;;;29.98;46.65
10718;BME280;13513;42.700;23.124;2023-06-22T10:57:59;93378.56;;;30.39;43.73
10718;BME280;13513;42.700;23.124;2023-06-22T11:00:30;93378.70;;;30.37;43.68
10718;BME280;13513;42.700;23.124;2023-06-22T11:03:01;93375.69;;;30.07;46.51
10718;BME280;13513;42.700;23.124;2023-06-22T11:05:33;93367.83;;;30.21;48.03
10718;BME280;13513;42.700;23.124;2023-06-22T11:08:04;93366.21;;;30.26;49.56
10718;BME280;13513;42.700;23.124;2023-06-22T11:10:33;93373.10;;;30.39;47.39
10718;BME280;13513;42.700;23.124;2023-06-22T11:13:04;93378.48;;;30.55;43.98
10718;BME280;13513;42.700;23.124;2023-06-22T11:15:35;93373.03;;;30.26;47.36
10718;BME280;13513;42.700;23.124;2023-06-22T11:18:07;93364.29;;;30.11;44.60
10718;BME280;13513;42.700;23.124;2023-06-22T11:20:40;93364.77;;;30.42;45.94
10718;BME280;13513;42.700;23.124;2023-06-22T11:23:10;93358.11;;;30.68;46.42
10718;BME280;13513;42.700;23.124;2023-06-22T11:25:42;93362.37;;;30.75;43.27
10718;BME280;13513;42.700;23.124;2023-06-22T11:28:13;93358.02;;;30.93;43.82
10718;BME280;13513;42.700;23.124;2023-06-22T11:30:43;93360.33;;;30.53;40.72
10718;BME280;13513;42.700;23.124;2023-06-22T11:33:13;93348.70;;;30.56;45.00
10718;BME280;13513;42.700;23.124;2023-06-22T11:35:44;93355.20;;;30.76;41.46
10718;BME280;13513;42.700;23.124;2023-06-22T11:38:15;93356.95;;;30.69;41.11
10718;BME280;13513;42.700;23.124;2023-06-22T11:40:46;93359.38;;;30.36;41.30
10718;BME280;13513;42.700;23.124;2023-06-22T11:43:17;93357.22;;;30.16;42.74
10718;BME280;13513;42.700;23.124;2023-06-22T11:45:48;93358.22;;;30.02;43.03
10718;BME280;13513;42.700;23.124;2023-06-22T11:48:19;93358.51;;;29.97;44.78
10718;BME280;13513;42.700;23.124;2023-06-22T11:50:50;93356.92;;;30.21;46.28
10718;BME280;13513;42.700;23.124;2023-06-22T11:53:22;93347.75;;;30.67;47.06
10718;BME280;13513;42.700;23.124;2023-06-22T11:55:51;93336.26;;;31.51;43.71
10718;BME280;13513;42.700;23.124;2023-06-22T11:58:22;93341.31;;;32.10;40.34
10718;BME280;13513;42.700;23.124;2023-06-22T12:00:54;93337.05;;;32.26;41.11
10718;BME280;13513;42.700;23.124;2023-06-22T12:03:23;93337.67;;;32.42;37.70
10718;BME280;13513;42.700;23.124;2023-06-22T12:05:54;93341.27;;;32.49;38.08
10718;BME280;13513;42.700;23.124;2023-06-22T12:08:25;93341.58;;;32.15;36.09
10718;BME280;13513;42.700;23.124;2023-06-22T12:10:56;93344.86;;;31.75;38.38
10718;BME280;13513;42.700;23.124;2023-06-22T12:13:27;93342.84;;;31.46;38.22
10718;BME280;13513;42.700;23.124;2023-06-22T12:15:58;93350.96;;;31.11;42.49
10718;BME280;13513;42.700;23.124;2023-06-22T12:18:32;93351.77;;;30.26;44.04
10718;BME280;13513;42.700;23.124;2023-06-22T12:21:03;93361.66;;;29.89;46.22
10718;BME280;13513;42.700;23.124;2023-06-22T12:23:34;93360.27;;;29.49;48.04
10718;BME280;13513;42.700;23.124;2023-06-22T12:26:05;93379.07;;;28.95;51.32
10718;BME280;13513;42.700;23.124;2023-06-22T12:28:36;93406.77;;;27.52;63.57
10718;BME280;13513;42.700;23.124;2023-06-22T12:31:08;93434.20;;;25.91;74.55
10718;BME280;13513;42.700;23.124;2023-06-22T12:33:38;93432.54;;;24.44;88.84
10718;BME280;13513;42.700;23.124;2023-06-22T12:36:09;93412.55;;;22.85;100.00
10718;BME280;13513;42.700;23.124;2023-06-22T12:38:40;93411.08;;;21.26;100.00
10718;BME280;13513;42.700;23.124;2023-06-22T12:41:11;93423.31;;;20.89;100.00
10718;BME280;13513;42.700;23.124;2023-06-22T12:43:41;93435.03;;;20.79;100.00
10718;BME280;13513;42.700;23.124;2023-06-22T12:46:12;93431.53;;;21.24;100.00
10718;BME280;13513;42.700;23.124;2023-06-22T12:48:43;93436.84;;;21.54;100.00
10718;BME280;13513;42.700;23.124;2023-06-22T12:51:21;93433.81;;;21.96;100.00
10718;BME280;13513;42.700;23.124;2023-06-22T12:53:52;93430.67;;;22.27;100.00
10718;BME280;13513;42.700;23.124;2023-06-22T12:56:24;93427.22;;;22.48;100.00
10718;BME280;13513;42.700;23.124;2023-06-22T12:58:54;93419.50;;;22.97;100.00
10718;BME280;13513;42.700;23.124;2023-06-22T13:01:25;93419.12;;;22.81;100.00
10718;BME280;13513;42.700;23.124;2023-06-22T13:03:56;93401.33;;;22.50;100.00
10718;BME280;13513;42.700;23.124;2023-06-22T13:06:27;93389.87;;;22.11;100.00
10718;BME280;13513;42.700;23.124;2023-06-22T13:08:59;93370.75;;;22.10;100.00
10718;BME280;13513;42.700;23.124;2023-06-22T13:11:29;93362.20;;;22.52;100.00
10718;BME280;13513;42.700;23.124;2023-06-22T13:14:00;93368.38;;;22.83;100.00
10718;BME280;13513;42.700;23.124;2023-06-22T13:16:30;93371.53;;;23.16;100.00